sensor_id;sensor_type;location;lat;lon;timestamp;temperature;humidity
59556;DHT22;45374;52.746;6.304;2024-03-07T00:00:11;3.00;99.90
59556;DHT22;45374;52.746;6.304;2024-03-07T00:02:45;3.00;99.90
59556;DHT22;45374;52.746;6.304;2024-03-07T00:05:11;3.00;99.90
59556;DHT22;45374;52.746;6.304;2024-03-07T00:07:38;3.00;99.90
59556;DHT22;45374;52.746;6.304;2024-03-07T00:10:05;2.90;99.90
59556;DHT22;45374;52.746;6.304;2024-03-07T00:12:36;2.90;99.90
59556;DHT22;45374;52.746;6.304;2024-03-07T00:15:03;2.90;99.90
59556;DHT22;45374;52.746;6.304;2024-03-07T00:17:28;2.90;99.90
59556;DHT22;45374;52.746;6.304;2024-03-07T00:19:54;2.90;99.90
59556;DHT22;45374;52.746;6.304;2024-03-07T00:22:20;2.90;99.90
59556;DHT22;45374;52.746;6.304;2024-03-07T00:24:46;2.90;99.90
59556;DHT22;45374;52.746;6.304;2024-03-07T00:27:15;2.90;99.90
59556;DHT22;45374;52.746;6.304;2024-03-07T00:29:41;2.90;99.90
59556;DHT22;45374;52.746;6.304;2024-03-07T00:32:08;2.90;99.90
59556;DHT22;45374;52.746;6.304;2024-03-07T00:34:34;2.90;99.90
59556;DHT22;45374;52.746;6.304;2024-03-07T00:37:00;2.90;99.90
59556;DHT22;45374;52.746;6.304;2024-03-07T00:39:26;2.90;99.90
59556;DHT22;45374;52.746;6.304;2024-03-07T00:41:51;2.90;99.90
59556;DHT22;45374;52.746;6.304;2024-03-07T00:44:17;2.90;99.90
59556;DHT22;45374;52.746;6.304;2024-03-07T00:46:43;2.90;99.90
59556;DHT22;45374;52.746;6.304;2024-03-07T00:49:08;2.90;99.90
59556;DHT22;45374;52.746;6.304;2024-03-07T00:51:34;2.90;99.90
59556;DHT22;45374;52.746;6.304;2024-03-07T00:54:00;2.90;99.90
59556;DHT22;45374;52.746;6.304;2024-03-07T00:56:26;2.90;99.90
59556;DHT22;45374;52.746;6.304;2024-03-07T00:59:27;2.90;99.90
59556;DHT22;45374;52.746;6.304;2024-03-07T01:01:53;2.90;99.90
59556;DHT22;45374;52.746;6.304;2024-03-07T01:04:19;2.90;99.90
59556;DHT22;45374;52.746;6.304;2024-03-07T01:06:45;3.00;99.90
59556;DHT22;45374;52.746;6.304;2024-03-07T01:09:11;3.00;99.90
59556;DHT22;45374;52.746;6.304;2024-03-07T01:11:44;3.10;99.90
59556;DHT22;45374;52.746;6.304;2024-03-07T01:14:21;3.10;99.90
59556;DHT22;45374;52.746;6.304;2024-03-07T01:16:48;3.20;99.90
59556;DHT22;45374;52.746;6.304;2024-03-07T01:19:19;3.20;99.90
59556;DHT22;45374;52.746;6.304;2024-03-07T01:21:45;3.20;99.90
59556;DHT22;45374;52.746;6.304;2024-03-07T01:24:10;3.20;99.90
59556;DHT22;45374;52.746;6.304;2024-03-07T01:26:43;3.20;99.90
59556;DHT22;45374;52.746;6.304;2024-03-07T01:29:10;3.20;99.90
59556;DHT22;45374;52.746;6.304;2024-03-07T01:31:35;3.20;99.90
59556;DHT22;45374;52.746;6.304;2024-03-07T01:34:24;3.20;99.90
59556;DHT22;45374;52.746;6.304;2024-03-07T01:36:49;3.20;99.90
59556;DHT22;45374;52.746;6.304;2024-03-07T01:39:15;3.20;99.90
59556;DHT22;45374;52.746;6.304;2024-03-07T01:41:41;3.20;99.90
59556;DHT22;45374;52.746;6.304;2024-03-07T01:44:07;3.10;99.90
59556;DHT22;45374;52.746;6.304;2024-03-07T01:46:34;3.20;99.90
59556;DHT22;45374;52.746;6.304;2024-03-07T01:49:00;3.20;99.90
59556;DHT22;45374;52.746;6.304;2024-03-07T01:51:26;3.20;99.90
59556;DHT22;45374;52.746;6.304;2024-03-07T01:54:02;3.10;99.90
59556;DHT22;45374;52.746;6.304;2024-03-07T01:56:28;3.10;99.90
59556;DHT22;45374;52.746;6.304;2024-03-07T01:59:03;3.00;99.90
59556;DHT22;45374;52.746;6.304;2024-03-07T02:01:31;3.00;99.90
59556;DHT22;45374;52.746;6.304;2024-03-07T02:03:57;3.00;99.90
59556;DHT22;45374;52.746;6.304;2024-03-07T02:06:23;3.00;99.90
59556;DHT22;45374;52.746;6.304;2024-03-07T02:08:49;2.90;99.90
59556;DHT22;45374;52.746;6.304;2024-03-07T02:11:14;2.80;99.90
59556;DHT22;45374;52.746;6.304;2024-03-07T02:14:17;2.90;99.90
59556;DHT22;45374;52.746;6.304;2024-03-07T02:16:43;2.80;99.90
59556;DHT22;45374;52.746;6.304;2024-03-07T02:19:13;2.80;99.90
59556;DHT22;45374;52.746;6.304;2024-03-07T02:21:39;2.80;99.90
59556;DHT22;45374;52.746;6.304;2024-03-07T02:24:05;2.80;99.90
59556;DHT22;45374;52.746;6.304;2024-03-07T02:26:31;2.80;99.90
59556;DHT22;45374;52.746;6.304;2024-03-07T02:28:56;2.80;99.90
59556;DHT22;45374;52.746;6.304;2024-03-07T02:31:22;2.80;99.90
59556;DHT22;45374;52.746;6.304;2024-03-07T02:34:01;2.70;99.90
59556;DHT22;45374;52.746;6.304;2024-03-07T02:36:27;2.70;99.90
59556;DHT22;45374;52.746;6.304;2024-03-07T02:38:53;2.70;99.90
59556;DHT22;45374;52.746;6.304;2024-03-07T02:41:21;2.70;99.90
59556;DHT22;45374;52.746;6.304;2024-03-07T02:43:47;2.70;99.90
59556;DHT22;45374;52.746;6.304;2024-03-07T02:46:12;2.70;99.90
59556;DHT22;45374;52.746;6.304;2024-03-07T02:48:38;2.60;99.90
59556;DHT22;45374;52.746;6.304;2024-03-07T02:51:04;2.60;99.90
59556;DHT22;45374;52.746;6.304;2024-03-07T02:53:33;2.60;99.90
59556;DHT22;45374;52.746;6.304;2024-03-07T02:56:11;2.60;99.90
59556;DHT22;45374;52.746;6.304;2024-03-07T02:58:37;2.60;99.90
59556;DHT22;45374;52.746;6.304;2024-03-07T03:01:02;2.50;99.90
59556;DHT22;45374;52.746;6.304;2024-03-07T03:03:29;2.50;99.90
59556;DHT22;45374;52.746;6.304;2024-03-07T03:05:59;2.40;99.90
59556;DHT22;45374;52.746;6.304;2024-03-07T03:08:25;2.40;99.90
59556;DHT22;45374;52.746;6.304;2024-03-07T03:14:08;2.30;99.90
59556;DHT22;45374;52.746;6.304;2024-03-07T03:16:36;2.30;99.90
59556;DHT22;45374;52.746;6.304;2024-03-07T03:19:01;2.30;99.90
59556;DHT22;45374;52.746;6.304;2024-03-07T03:21:27;2.30;99.90
59556;DHT22;45374;52.746;6.304;2024-03-07T03:23:53;2.20;99.90
59556;DHT22;45374;52.746;6.304;2024-03-07T03:26:20;2.20;99.90
59556;DHT22;45374;52.746;6.304;2024-03-07T03:28:47;2.20;99.90
59556;DHT22;45374;52.746;6.304;2024-03-07T03:31:12;2.10;99.90
59556;DHT22;45374;52.746;6.304;2024-03-07T03:33:39;2.10;99.90
59556;DHT22;45374;52.746;6.304;2024-03-07T03:36:06;2.10;99.90
59556;DHT22;45374;52.746;6.304;2024-03-07T03:38:45;2.10;99.90
59556;DHT22;45374;52.746;6.304;2024-03-07T03:41:15;2.00;99.90
59556;DHT22;45374;52.746;6.304;2024-03-07T03:43:42;2.10;99.90
59556;DHT22;45374;52.746;6.304;2024-03-07T03:46:11;2.00;99.90
59556;DHT22;45374;52.746;6.304;2024-03-07T03:48:39;2.00;99.90
59556;DHT22;45374;52.746;6.304;2024-03-07T03:51:07;2.00;99.90
59556;DHT22;45374;52.746;6.304;2024-03-07T03:53:38;2.00;99.90
59556;DHT22;45374;52.746;6.304;2024-03-07T03:56:04;2.00;99.90
59556;DHT22;45374;52.746;6.304;2024-03-07T03:58:31;1.90;99.90
59556;DHT22;45374;52.746;6.304;2024-03-07T04:04:41;1.90;99.90
59556;DHT22;45374;52.746;6.304;2024-03-07T04:07:17;1.90;99.90
59556;DHT22;45374;52.746;6.304;2024-03-07T04:09:43;1.80;99.90
59556;DHT22;45374;52.746;6.304;2024-03-07T04:15:27;1.80;99.90
59556;DHT22;45374;52.746;6.304;2024-03-07T04:18:21;1.80;99.90
59556;DHT22;45374;52.746;6.304;2024-03-07T04:20:46;1.80;99.90
59556;DHT22;45374;52.746;6.304;2024-03-07T04:23:12;1.80;99.90
59556;DHT22;45374;52.746;6.304;2024-03-07T04:28:49;1.70;99.90
59556;DHT22;45374;52.746;6.304;2024-03-07T04:31:50;1.70;99.90
59556;DHT22;45374;52.746;6.304;2024-03-07T04:34:16;1.70;99.90
59556;DHT22;45374;52.746;6.304;2024-03-07T04:36:41;1.70;99.90
59556;DHT22;45374;52.746;6.304;2024-03-07T04:39:09;1.70;99.90
59556;DHT22;45374;52.746;6.304;2024-03-07T04:41:48;1.70;99.90
59556;DHT22;45374;52.746;6.304;2024-03-07T04:44:13;1.70;99.90
59556;DHT22;45374;52.746;6.304;2024-03-07T04:46:39;1.70;99.90
59556;DHT22;45374;52.746;6.304;2024-03-07T04:49:08;1.70;99.90
59556;DHT22;45374;52.746;6.304;2024-03-07T04:51:34;1.70;99.90
59556;DHT22;45374;52.746;6.304;2024-03-07T04:54:00;1.70;99.90
59556;DHT22;45374;52.746;6.304;2024-03-07T04:56:26;1.70;99.90
59556;DHT22;45374;52.746;6.304;2024-03-07T04:58:53;1.70;99.90
59556;DHT22;45374;52.746;6.304;2024-03-07T05:01:20;1.70;99.90
59556;DHT22;45374;52.746;6.304;2024-03-07T05:03:46;1.70;99.90
59556;DHT22;45374;52.746;6.304;2024-03-07T05:06:14;1.60;99.90
59556;DHT22;45374;52.746;6.304;2024-03-07T05:08:42;1.60;99.90
59556;DHT22;45374;52.746;6.304;2024-03-07T05:11:07;1.60;99.90
59556;DHT22;45374;52.746;6.304;2024-03-07T05:13:33;1.50;99.90
59556;DHT22;45374;52.746;6.304;2024-03-07T05:15:58;1.50;99.90
59556;DHT22;45374;52.746;6.304;2024-03-07T05:18:25;1.50;99.90
59556;DHT22;45374;52.746;6.304;2024-03-07T05:20:50;1.50;99.90
59556;DHT22;45374;52.746;6.304;2024-03-07T05:23:16;1.40;99.90
59556;DHT22;45374;52.746;6.304;2024-03-07T05:25:42;1.40;99.90
59556;DHT22;45374;52.746;6.304;2024-03-07T05:28:11;1.40;99.90
59556;DHT22;45374;52.746;6.304;2024-03-07T05:30:37;1.40;99.90
59556;DHT22;45374;52.746;6.304;2024-03-07T05:33:13;1.40;99.90
59556;DHT22;45374;52.746;6.304;2024-03-07T05:35:38;1.30;99.90
59556;DHT22;45374;52.746;6.304;2024-03-07T05:38:04;1.30;99.90
59556;DHT22;45374;52.746;6.304;2024-03-07T05:40:30;1.30;99.90
59556;DHT22;45374;52.746;6.304;2024-03-07T05:42:55;1.30;99.90
59556;DHT22;45374;52.746;6.304;2024-03-07T05:45:35;1.20;99.90
59556;DHT22;45374;52.746;6.304;2024-03-07T05:48:14;1.20;99.90
59556;DHT22;45374;52.746;6.304;2024-03-07T05:50:41;1.20;99.90
59556;DHT22;45374;52.746;6.304;2024-03-07T05:53:22;1.10;99.90
59556;DHT22;45374;52.746;6.304;2024-03-07T05:55:47;1.10;99.90
59556;DHT22;45374;52.746;6.304;2024-03-07T05:58:13;1.10;99.90
59556;DHT22;45374;52.746;6.304;2024-03-07T06:00:46;1.00;99.90
59556;DHT22;45374;52.746;6.304;2024-03-07T06:03:18;1.00;99.90
59556;DHT22;45374;52.746;6.304;2024-03-07T06:05:46;1.00;99.90
59556;DHT22;45374;52.746;6.304;2024-03-07T06:08:32;0.90;99.90
59556;DHT22;45374;52.746;6.304;2024-03-07T06:10:58;0.90;99.90
59556;DHT22;45374;52.746;6.304;2024-03-07T06:13:23;0.90;99.90
59556;DHT22;45374;52.746;6.304;2024-03-07T06:15:49;0.90;99.90
59556;DHT22;45374;52.746;6.304;2024-03-07T06:18:14;0.90;99.90
59556;DHT22;45374;52.746;6.304;2024-03-07T06:20:41;0.90;99.90
59556;DHT22;45374;52.746;6.304;2024-03-07T06:23:07;0.90;99.90
59556;DHT22;45374;52.746;6.304;2024-03-07T06:25:33;1.00;99.90
59556;DHT22;45374;52.746;6.304;2024-03-07T06:28:03;0.90;99.90
59556;DHT22;45374;52.746;6.304;2024-03-07T06:30:43;1.00;99.90
59556;DHT22;45374;52.746;6.304;2024-03-07T06:33:09;1.00;99.90
59556;DHT22;45374;52.746;6.304;2024-03-07T06:35:41;1.00;99.90
59556;DHT22;45374;52.746;6.304;2024-03-07T06:38:08;1.00;99.90
59556;DHT22;45374;52.746;6.304;2024-03-07T06:40:35;1.00;99.90
59556;DHT22;45374;52.746;6.304;2024-03-07T06:43:02;1.00;99.90
59556;DHT22;45374;52.746;6.304;2024-03-07T06:45:50;1.00;99.90
59556;DHT22;45374;52.746;6.304;2024-03-07T06:48:17;0.90;99.90
59556;DHT22;45374;52.746;6.304;2024-03-07T06:50:43;1.00;99.90
59556;DHT22;45374;52.746;6.304;2024-03-07T06:53:25;1.00;99.90
59556;DHT22;45374;52.746;6.304;2024-03-07T06:55:52;1.00;99.90
59556;DHT22;45374;52.746;6.304;2024-03-07T06:58:25;1.00;99.90
59556;DHT22;45374;52.746;6.304;2024-03-07T07:00:52;1.00;99.90
59556;DHT22;45374;52.746;6.304;2024-03-07T07:03:20;1.10;99.90
59556;DHT22;45374;52.746;6.304;2024-03-07T07:05:46;1.20;99.90
59556;DHT22;45374;52.746;6.304;2024-03-07T07:08:14;1.20;99.90
59556;DHT22;45374;52.746;6.304;2024-03-07T07:10:41;1.20;99.90
59556;DHT22;45374;52.746;6.304;2024-03-07T07:13:26;1.30;99.90
59556;DHT22;45374;52.746;6.304;2024-03-07T07:15:52;1.30;99.90
59556;DHT22;45374;52.746;6.304;2024-03-07T07:18:23;1.40;99.90
59556;DHT22;45374;52.746;6.304;2024-03-07T07:21:23;1.40;99.90
59556;DHT22;45374;52.746;6.304;2024-03-07T07:23:48;1.50;99.90
59556;DHT22;45374;52.746;6.304;2024-03-07T07:26:14;1.60;99.90
59556;DHT22;45374;52.746;6.304;2024-03-07T07:28:40;1.60;99.90
59556;DHT22;45374;52.746;6.304;2024-03-07T07:34:49;1.70;99.90
59556;DHT22;45374;52.746;6.304;2024-03-07T07:40:33;1.80;99.90
59556;DHT22;45374;52.746;6.304;2024-03-07T07:42:58;2.00;99.90
59556;DHT22;45374;52.746;6.304;2024-03-07T07:45:35;2.00;99.90
59556;DHT22;45374;52.746;6.304;2024-03-07T07:48:01;2.10;99.90
59556;DHT22;45374;52.746;6.304;2024-03-07T07:50:39;2.20;99.90
59556;DHT22;45374;52.746;6.304;2024-03-07T07:53:04;2.30;99.90
59556;DHT22;45374;52.746;6.304;2024-03-07T07:55:32;2.30;99.90
59556;DHT22;45374;52.746;6.304;2024-03-07T07:57:59;2.30;99.90
59556;DHT22;45374;52.746;6.304;2024-03-07T08:00:28;2.40;99.90
59556;DHT22;45374;52.746;6.304;2024-03-07T08:03:01;2.60;99.90
59556;DHT22;45374;52.746;6.304;2024-03-07T08:05:32;2.70;99.90
59556;DHT22;45374;52.746;6.304;2024-03-07T08:08:00;2.80;99.90
59556;DHT22;45374;52.746;6.304;2024-03-07T08:10:29;2.90;99.90
59556;DHT22;45374;52.746;6.304;2024-03-07T08:12:55;3.00;99.90
59556;DHT22;45374;52.746;6.304;2024-03-07T08:15:21;3.00;99.90
59556;DHT22;45374;52.746;6.304;2024-03-07T08:17:50;3.10;99.90
59556;DHT22;45374;52.746;6.304;2024-03-07T08:20:19;3.10;99.90
59556;DHT22;45374;52.746;6.304;2024-03-07T08:22:49;3.20;99.90
59556;DHT22;45374;52.746;6.304;2024-03-07T08:25:25;3.20;99.90
59556;DHT22;45374;52.746;6.304;2024-03-07T08:27:53;3.30;99.90
59556;DHT22;45374;52.746;6.304;2024-03-07T08:30:19;3.40;99.90
59556;DHT22;45374;52.746;6.304;2024-03-07T08:32:45;3.40;99.90
59556;DHT22;45374;52.746;6.304;2024-03-07T08:35:14;3.40;99.90
59556;DHT22;45374;52.746;6.304;2024-03-07T08:37:42;3.50;99.90
59556;DHT22;45374;52.746;6.304;2024-03-07T08:40:09;3.70;99.90
59556;DHT22;45374;52.746;6.304;2024-03-07T08:42:48;3.80;99.90
59556;DHT22;45374;52.746;6.304;2024-03-07T08:45:17;3.90;99.90
59556;DHT22;45374;52.746;6.304;2024-03-07T08:47:48;3.90;99.90
59556;DHT22;45374;52.746;6.304;2024-03-07T08:50:15;4.00;99.90
59556;DHT22;45374;52.746;6.304;2024-03-07T08:52:43;4.10;99.90
59556;DHT22;45374;52.746;6.304;2024-03-07T08:55:11;4.10;99.90
59556;DHT22;45374;52.746;6.304;2024-03-07T08:57:38;4.20;99.90
59556;DHT22;45374;52.746;6.304;2024-03-07T09:00:05;4.20;99.90
59556;DHT22;45374;52.746;6.304;2024-03-07T09:02:35;4.20;99.90
59556;DHT22;45374;52.746;6.304;2024-03-07T09:05:05;4.20;99.90
59556;DHT22;45374;52.746;6.304;2024-03-07T09:07:31;4.30;99.90
59556;DHT22;45374;52.746;6.304;2024-03-07T09:09:57;4.20;99.90
59556;DHT22;45374;52.746;6.304;2024-03-07T09:12:23;4.20;99.90
59556;DHT22;45374;52.746;6.304;2024-03-07T09:14:51;4.20;99.90
59556;DHT22;45374;52.746;6.304;2024-03-07T09:17:18;4.20;99.90
59556;DHT22;45374;52.746;6.304;2024-03-07T09:19:43;4.30;99.90
59556;DHT22;45374;52.746;6.304;2024-03-07T09:22:09;4.20;99.90
59556;DHT22;45374;52.746;6.304;2024-03-07T09:24:34;4.20;99.90
59556;DHT22;45374;52.746;6.304;2024-03-07T09:27:00;4.10;99.90
59556;DHT22;45374;52.746;6.304;2024-03-07T09:29:26;4.00;99.90
59556;DHT22;45374;52.746;6.304;2024-03-07T09:31:53;4.00;99.90
59556;DHT22;45374;52.746;6.304;2024-03-07T09:34:19;4.00;99.90
59556;DHT22;45374;52.746;6.304;2024-03-07T09:36:47;4.00;99.90
59556;DHT22;45374;52.746;6.304;2024-03-07T09:39:12;4.10;99.90
59556;DHT22;45374;52.746;6.304;2024-03-07T09:41:42;4.00;99.90
59556;DHT22;45374;52.746;6.304;2024-03-07T09:44:09;3.90;99.90
59556;DHT22;45374;52.746;6.304;2024-03-07T09:46:41;3.90;99.90
59556;DHT22;45374;52.746;6.304;2024-03-07T09:49:10;3.90;99.90
59556;DHT22;45374;52.746;6.304;2024-03-07T09:51:36;3.90;99.90
59556;DHT22;45374;52.746;6.304;2024-03-07T09:54:03;4.00;99.90
59556;DHT22;45374;52.746;6.304;2024-03-07T09:56:30;4.00;99.90
59556;DHT22;45374;52.746;6.304;2024-03-07T09:59:04;4.00;99.90
59556;DHT22;45374;52.746;6.304;2024-03-07T10:01:33;4.00;99.90
59556;DHT22;45374;52.746;6.304;2024-03-07T10:04:00;4.00;99.90
59556;DHT22;45374;52.746;6.304;2024-03-07T10:06:46;4.10;99.90
59556;DHT22;45374;52.746;6.304;2024-03-07T10:09:13;4.10;99.90
59556;DHT22;45374;52.746;6.304;2024-03-07T10:11:40;4.10;99.90
59556;DHT22;45374;52.746;6.304;2024-03-07T10:14:12;4.10;99.90
59556;DHT22;45374;52.746;6.304;2024-03-07T10:16:37;4.10;99.90
59556;DHT22;45374;52.746;6.304;2024-03-07T10:19:06;4.10;99.90
59556;DHT22;45374;52.746;6.304;2024-03-07T10:21:40;4.10;99.90
59556;DHT22;45374;52.746;6.304;2024-03-07T10:24:07;4.20;99.90
59556;DHT22;45374;52.746;6.304;2024-03-07T10:26:37;4.40;99.90
59556;DHT22;45374;52.746;6.304;2024-03-07T10:29:04;4.50;99.90
59556;DHT22;45374;52.746;6.304;2024-03-07T10:31:31;4.50;99.90
59556;DHT22;45374;52.746;6.304;2024-03-07T10:34:01;4.60;99.90
59556;DHT22;45374;52.746;6.304;2024-03-07T10:36:32;4.70;99.90
59556;DHT22;45374;52.746;6.304;2024-03-07T10:39:02;4.80;99.90
59556;DHT22;45374;52.746;6.304;2024-03-07T10:41:35;5.00;99.90
59556;DHT22;45374;52.746;6.304;2024-03-07T10:44:04;5.10;99.90
59556;DHT22;45374;52.746;6.304;2024-03-07T10:46:32;5.20;99.90
59556;DHT22;45374;52.746;6.304;2024-03-07T10:48:59;5.30;99.90
59556;DHT22;45374;52.746;6.304;2024-03-07T10:51:38;5.30;99.90
59556;DHT22;45374;52.746;6.304;2024-03-07T10:57:30;5.40;99.90
59556;DHT22;45374;52.746;6.304;2024-03-07T11:00:02;5.50;99.90
59556;DHT22;45374;52.746;6.304;2024-03-07T11:02:49;5.50;99.90
59556;DHT22;45374;52.746;6.304;2024-03-07T11:05:19;5.50;99.90
59556;DHT22;45374;52.746;6.304;2024-03-07T11:07:47;5.50;99.90
59556;DHT22;45374;52.746;6.304;2024-03-07T11:10:16;5.60;99.90
59556;DHT22;45374;52.746;6.304;2024-03-07T11:12:44;5.60;99.90
59556;DHT22;45374;52.746;6.304;2024-03-07T11:15:17;5.70;99.90
59556;DHT22;45374;52.746;6.304;2024-03-07T11:17:46;5.70;99.90
59556;DHT22;45374;52.746;6.304;2024-03-07T11:20:39;5.70;99.90
59556;DHT22;45374;52.746;6.304;2024-03-07T11:25:53;5.70;99.90
59556;DHT22;45374;52.746;6.304;2024-03-07T11:28:19;5.70;99.90
59556;DHT22;45374;52.746;6.304;2024-03-07T11:30:46;5.60;99.90
59556;DHT22;45374;52.746;6.304;2024-03-07T11:33:12;5.60;99.90
59556;DHT22;45374;52.746;6.304;2024-03-07T11:35:39;5.70;99.90
59556;DHT22;45374;52.746;6.304;2024-03-07T11:38:08;5.70;99.90
59556;DHT22;45374;52.746;6.304;2024-03-07T11:43:04;5.80;99.90
59556;DHT22;45374;52.746;6.304;2024-03-07T11:45:31;6.00;99.90
59556;DHT22;45374;52.746;6.304;2024-03-07T11:48:05;6.10;99.90
59556;DHT22;45374;52.746;6.304;2024-03-07T11:50:38;6.20;99.90
59556;DHT22;45374;52.746;6.304;2024-03-07T11:53:05;6.20;99.90
59556;DHT22;45374;52.746;6.304;2024-03-07T11:55:35;6.30;99.90
59556;DHT22;45374;52.746;6.304;2024-03-07T11:58:20;6.40;99.90
59556;DHT22;45374;52.746;6.304;2024-03-07T12:00:47;6.30;99.90
59556;DHT22;45374;52.746;6.304;2024-03-07T12:03:20;6.20;99.90
59556;DHT22;45374;52.746;6.304;2024-03-07T12:05:49;6.20;99.90
59556;DHT22;45374;52.746;6.304;2024-03-07T12:08:18;6.20;99.90
59556;DHT22;45374;52.746;6.304;2024-03-07T12:10:45;6.30;99.90
59556;DHT22;45374;52.746;6.304;2024-03-07T12:13:11;6.30;99.90
59556;DHT22;45374;52.746;6.304;2024-03-07T12:15:38;6.50;99.90
59556;DHT22;45374;52.746;6.304;2024-03-07T12:18:05;6.70;99.90
59556;DHT22;45374;52.746;6.304;2024-03-07T12:20:39;6.80;99.90
59556;DHT22;45374;52.746;6.304;2024-03-07T12:23:07;7.00;99.90
59556;DHT22;45374;52.746;6.304;2024-03-07T12:25:40;7.00;99.90
59556;DHT22;45374;52.746;6.304;2024-03-07T12:28:12;7.10;99.90
59556;DHT22;45374;52.746;6.304;2024-03-07T12:30:48;7.10;99.90
59556;DHT22;45374;52.746;6.304;2024-03-07T12:33:21;7.10;99.90
59556;DHT22;45374;52.746;6.304;2024-03-07T12:35:49;7.10;99.90
59556;DHT22;45374;52.746;6.304;2024-03-07T12:38:21;6.90;99.90
59556;DHT22;45374;52.746;6.304;2024-03-07T12:41:06;6.90;99.90
59556;DHT22;45374;52.746;6.304;2024-03-07T12:43:42;6.80;99.90
59556;DHT22;45374;52.746;6.304;2024-03-07T12:46:12;6.80;99.90
59556;DHT22;45374;52.746;6.304;2024-03-07T12:48:42;6.70;99.90
59556;DHT22;45374;52.746;6.304;2024-03-07T12:51:10;6.70;99.90
59556;DHT22;45374;52.746;6.304;2024-03-07T12:53:37;6.70;99.90
59556;DHT22;45374;52.746;6.304;2024-03-07T12:56:02;6.70;99.90
59556;DHT22;45374;52.746;6.304;2024-03-07T12:58:28;6.80;99.90
59556;DHT22;45374;52.746;6.304;2024-03-07T13:00:55;6.80;99.90
59556;DHT22;45374;52.746;6.304;2024-03-07T13:03:22;6.80;99.90
59556;DHT22;45374;52.746;6.304;2024-03-07T13:05:47;6.90;99.90
59556;DHT22;45374;52.746;6.304;2024-03-07T13:08:13;7.00;99.90
59556;DHT22;45374;52.746;6.304;2024-03-07T13:10:42;7.20;99.90
59556;DHT22;45374;52.746;6.304;2024-03-07T13:13:08;7.30;99.90
59556;DHT22;45374;52.746;6.304;2024-03-07T13:15:37;7.30;99.90
59556;DHT22;45374;52.746;6.304;2024-03-07T13:18:05;7.40;99.90
59556;DHT22;45374;52.746;6.304;2024-03-07T13:20:31;7.40;99.90
59556;DHT22;45374;52.746;6.304;2024-03-07T13:22:57;7.40;99.90
59556;DHT22;45374;52.746;6.304;2024-03-07T13:25:25;7.30;99.90
59556;DHT22;45374;52.746;6.304;2024-03-07T13:30:33;7.30;99.90
59556;DHT22;45374;52.746;6.304;2024-03-07T13:33:03;7.30;99.90
59556;DHT22;45374;52.746;6.304;2024-03-07T13:35:29;7.20;99.90
59556;DHT22;45374;52.746;6.304;2024-03-07T13:37:55;7.10;99.90
59556;DHT22;45374;52.746;6.304;2024-03-07T13:40:26;7.00;99.90
59556;DHT22;45374;52.746;6.304;2024-03-07T13:42:59;6.90;99.90
59556;DHT22;45374;52.746;6.304;2024-03-07T13:45:29;6.80;99.90
59556;DHT22;45374;52.746;6.304;2024-03-07T13:47:58;6.80;99.90
59556;DHT22;45374;52.746;6.304;2024-03-07T13:50:27;6.80;99.90
59556;DHT22;45374;52.746;6.304;2024-03-07T13:52:55;6.70;99.90
59556;DHT22;45374;52.746;6.304;2024-03-07T13:55:35;6.70;99.90
59556;DHT22;45374;52.746;6.304;2024-03-07T13:58:07;6.70;99.90
59556;DHT22;45374;52.746;6.304;2024-03-07T14:09:45;6.70;99.90
59556;DHT22;45374;52.746;6.304;2024-03-07T14:12:31;6.70;99.90
59556;DHT22;45374;52.746;6.304;2024-03-07T14:15:07;6.70;99.90
59556;DHT22;45374;52.746;6.304;2024-03-07T14:27:03;6.70;99.90
59556;DHT22;45374;52.746;6.304;2024-03-07T14:29:57;6.80;99.90
59556;DHT22;45374;52.746;6.304;2024-03-07T14:32:29;6.80;99.90
59556;DHT22;45374;52.746;6.304;2024-03-07T14:35:22;6.80;99.90
59556;DHT22;45374;52.746;6.304;2024-03-07T14:37:55;6.80;99.90
59556;DHT22;45374;52.746;6.304;2024-03-07T14:40:28;6.80;99.90
59556;DHT22;45374;52.746;6.304;2024-03-07T14:42:56;6.80;99.90
59556;DHT22;45374;52.746;6.304;2024-03-07T14:45:39;6.70;99.90
59556;DHT22;45374;52.746;6.304;2024-03-07T14:48:06;6.70;99.90
59556;DHT22;45374;52.746;6.304;2024-03-07T14:50:35;6.70;99.90
59556;DHT22;45374;52.746;6.304;2024-03-07T14:53:03;6.70;99.90
59556;DHT22;45374;52.746;6.304;2024-03-07T14:55:30;6.70;99.90
59556;DHT22;45374;52.746;6.304;2024-03-07T14:57:57;6.70;99.90
59556;DHT22;45374;52.746;6.304;2024-03-07T15:00:27;6.70;99.90
59556;DHT22;45374;52.746;6.304;2024-03-07T15:02:54;6.70;99.90
59556;DHT22;45374;52.746;6.304;2024-03-07T15:05:23;6.70;99.90
59556;DHT22;45374;52.746;6.304;2024-03-07T15:07:51;6.70;99.90
59556;DHT22;45374;52.746;6.304;2024-03-07T15:10:30;6.60;99.90
59556;DHT22;45374;52.746;6.304;2024-03-07T15:13:00;6.60;99.90
59556;DHT22;45374;52.746;6.304;2024-03-07T15:15:26;6.60;99.90
59556;DHT22;45374;52.746;6.304;2024-03-07T15:17:59;6.60;99.90
59556;DHT22;45374;52.746;6.304;2024-03-07T15:20:25;6.60;99.90
59556;DHT22;45374;52.746;6.304;2024-03-07T15:22:56;6.50;99.90
59556;DHT22;45374;52.746;6.304;2024-03-07T15:25:22;6.50;99.90
59556;DHT22;45374;52.746;6.304;2024-03-07T15:27:52;6.50;99.90
59556;DHT22;45374;52.746;6.304;2024-03-07T15:30:19;6.50;99.90
59556;DHT22;45374;52.746;6.304;2024-03-07T15:32:45;6.50;99.90
59556;DHT22;45374;52.746;6.304;2024-03-07T15:35:13;6.50;99.90
59556;DHT22;45374;52.746;6.304;2024-03-07T15:37:43;6.50;99.90
59556;DHT22;45374;52.746;6.304;2024-03-07T15:40:10;6.50;99.90
59556;DHT22;45374;52.746;6.304;2024-03-07T15:42:40;6.40;99.90
59556;DHT22;45374;52.746;6.304;2024-03-07T15:45:08;6.40;99.90
59556;DHT22;45374;52.746;6.304;2024-03-07T15:47:56;6.40;99.90
59556;DHT22;45374;52.746;6.304;2024-03-07T15:50:28;6.40;99.90
59556;DHT22;45374;52.746;6.304;2024-03-07T15:52:57;6.40;99.90
59556;DHT22;45374;52.746;6.304;2024-03-07T15:55:25;6.40;99.90
59556;DHT22;45374;52.746;6.304;2024-03-07T15:57:54;6.40;99.90
59556;DHT22;45374;52.746;6.304;2024-03-07T16:00:27;6.40;99.90
59556;DHT22;45374;52.746;6.304;2024-03-07T16:08:21;6.40;99.90
59556;DHT22;45374;52.746;6.304;2024-03-07T16:10:47;6.40;99.90
59556;DHT22;45374;52.746;6.304;2024-03-07T16:13:13;6.40;99.90
59556;DHT22;45374;52.746;6.304;2024-03-07T16:19:07;6.40;99.90
59556;DHT22;45374;52.746;6.304;2024-03-07T16:21:35;6.40;99.90
59556;DHT22;45374;52.746;6.304;2024-03-07T16:24:03;6.40;99.90
59556;DHT22;45374;52.746;6.304;2024-03-07T16:26:35;6.30;99.90
59556;DHT22;45374;52.746;6.304;2024-03-07T16:29:01;6.30;99.90
59556;DHT22;45374;52.746;6.304;2024-03-07T16:35:34;6.30;99.90
59556;DHT22;45374;52.746;6.304;2024-03-07T16:38:00;6.40;99.90
59556;DHT22;45374;52.746;6.304;2024-03-07T16:40:27;6.30;99.90
59556;DHT22;45374;52.746;6.304;2024-03-07T16:42:55;6.30;99.90
59556;DHT22;45374;52.746;6.304;2024-03-07T16:45:31;6.30;99.90
59556;DHT22;45374;52.746;6.304;2024-03-07T16:48:01;6.30;99.90
59556;DHT22;45374;52.746;6.304;2024-03-07T16:50:31;6.30;99.90
59556;DHT22;45374;52.746;6.304;2024-03-07T16:52:59;6.20;99.90
59556;DHT22;45374;52.746;6.304;2024-03-07T16:55:27;6.20;99.90
59556;DHT22;45374;52.746;6.304;2024-03-07T16:57:54;6.20;99.90
59556;DHT22;45374;52.746;6.304;2024-03-07T17:00:21;6.20;99.90